sensor_id;sensor_type;location;lat;lon;timestamp;P1;durP1;ratioP1;P2;durP2;ratioP2
44558;SDS011;30270;40.238;18.256;2022-12-18T00:01:39;19.70;;;13.43;;
44558;SDS011;30270;40.238;18.256;2022-12-18T00:04:10;18.10;;;11.90;;
44558;SDS011;30270;40.238;18.256;2022-12-18T00:06:49;34.65;;;22.75;;
44558;SDS011;30270;40.238;18.256;2022-12-18T00:09:19;34.15;;;20.80;;
44558;SDS011;30270;40.238;18.256;2022-12-18T00:11:49;29.25;;;18.00;;
44558;SDS011;30270;40.238;18.256;2022-12-18T00:14:18;26.60;;;18.10;;
44558;SDS011;30270;40.238;18.256;2022-12-18T00:16:46;20.02;;;13.02;;
44558;SDS011;30270;40.238;18.256;2022-12-18T00:19:14;19.05;;;11.63;;
44558;SDS011;30270;40.238;18.256;2022-12-18T00:21:42;18.63;;;12.00;;
44558;SDS011;30270;40.238;18.256;2022-12-18T00:24:10;21.58;;;13.18;;
44558;SDS011;30270;40.238;18.256;2022-12-18T00:26:38;21.55;;;12.73;;
44558;SDS011;30270;40.238;18.256;2022-12-18T00:29:09;14.45;;;11.95;;
44558;SDS011;30270;40.238;18.256;2022-12-18T00:31:38;13.13;;;9.50;;
44558;SDS011;30270;40.238;18.256;2022-12-18T00:34:10;18.58;;;12.15;;
44558;SDS011;30270;40.238;18.256;2022-12-18T00:36:41;19.95;;;12.43;;
44558;SDS011;30270;40.238;18.256;2022-12-18T00:39:11;21.20;;;10.98;;
44558;SDS011;30270;40.238;18.256;2022-12-18T00:41:38;16.08;;;11.23;;
44558;SDS011;30270;40.238;18.256;2022-12-18T00:44:24;10.75;;;6.25;;
44558;SDS011;30270;40.238;18.256;2022-12-18T00:46:52;9.80;;;5.88;;
44558;SDS011;30270;40.238;18.256;2022-12-18T00:49:19;5.47;;;3.47;;
44558;SDS011;30270;40.238;18.256;2022-12-18T00:51:47;7.20;;;4.07;;
44558;SDS011;30270;40.238;18.256;2022-12-18T00:54:16;9.13;;;5.10;;
44558;SDS011;30270;40.238;18.256;2022-12-18T00:56:44;7.47;;;5.88;;
44558;SDS011;30270;40.238;18.256;2022-12-18T00:59:15;10.02;;;6.38;;
44558;SDS011;30270;40.238;18.256;2022-12-18T01:01:43;9.52;;;6.03;;
44558;SDS011;30270;40.238;18.256;2022-12-18T01:04:11;5.43;;;3.70;;
44558;SDS011;30270;40.238;18.256;2022-12-18T01:06:39;4.22;;;2.90;;
44558;SDS011;30270;40.238;18.256;2022-12-18T01:09:07;5.57;;;2.38;;
44558;SDS011;30270;40.238;18.256;2022-12-18T01:11:35;4.97;;;2.72;;
44558;SDS011;30270;40.238;18.256;2022-12-18T01:14:03;3.28;;;2.30;;
44558;SDS011;30270;40.238;18.256;2022-12-18T01:16:31;3.63;;;2.35;;
44558;SDS011;30270;40.238;18.256;2022-12-18T01:18:59;4.45;;;2.90;;
44558;SDS011;30270;40.238;18.256;2022-12-18T01:21:26;5.47;;;2.85;;
44558;SDS011;30270;40.238;18.256;2022-12-18T01:23:54;3.38;;;2.30;;
44558;SDS011;30270;40.238;18.256;2022-12-18T01:26:23;6.15;;;2.85;;
44558;SDS011;30270;40.238;18.256;2022-12-18T01:28:54;4.13;;;2.15;;
44558;SDS011;30270;40.238;18.256;2022-12-18T01:31:24;4.10;;;2.13;;
44558;SDS011;30270;40.238;18.256;2022-12-18T01:33:54;6.40;;;2.10;;
44558;SDS011;30270;40.238;18.256;2022-12-18T01:36:32;4.85;;;1.75;;
44558;SDS011;30270;40.238;18.256;2022-12-18T01:39:02;31.20;;;2.35;;
44558;SDS011;30270;40.238;18.256;2022-12-18T01:41:32;3.80;;;2.00;;
44558;SDS011;30270;40.238;18.256;2022-12-18T01:52:40;5.10;;;2.38;;
44558;SDS011;30270;40.238;18.256;2022-12-18T01:55:10;3.38;;;2.20;;
44558;SDS011;30270;40.238;18.256;2022-12-18T01:57:39;4.05;;;1.90;;
44558;SDS011;30270;40.238;18.256;2022-12-18T02:00:10;4.20;;;2.13;;
44558;SDS011;30270;40.238;18.256;2022-12-18T02:02:41;5.80;;;2.58;;
44558;SDS011;30270;40.238;18.256;2022-12-18T02:05:12;3.88;;;2.20;;
44558;SDS011;30270;40.238;18.256;2022-12-18T02:16:03;10.85;;;6.18;;
44558;SDS011;30270;40.238;18.256;2022-12-18T02:19:03;8.32;;;6.07;;
44558;SDS011;30270;40.238;18.256;2022-12-18T02:21:54;11.23;;;7.30;;
44558;SDS011;30270;40.238;18.256;2022-12-18T02:27:10;10.13;;;7.80;;
44558;SDS011;30270;40.238;18.256;2022-12-18T02:29:50;12.35;;;9.13;;
44558;SDS011;30270;40.238;18.256;2022-12-18T02:32:28;16.13;;;10.07;;
44558;SDS011;30270;40.238;18.256;2022-12-18T02:34:59;10.63;;;7.68;;
44558;SDS011;30270;40.238;18.256;2022-12-18T02:37:31;9.98;;;5.85;;
44558;SDS011;30270;40.238;18.256;2022-12-18T02:40:02;8.00;;;5.07;;
44558;SDS011;30270;40.238;18.256;2022-12-18T02:42:34;8.80;;;4.78;;
44558;SDS011;30270;40.238;18.256;2022-12-18T02:45:04;6.25;;;3.92;;
44558;SDS011;30270;40.238;18.256;2022-12-18T02:47:34;9.18;;;3.85;;
44558;SDS011;30270;40.238;18.256;2022-12-18T02:50:13;7.95;;;3.92;;
44558;SDS011;30270;40.238;18.256;2022-12-18T02:53:10;7.38;;;3.25;;
44558;SDS011;30270;40.238;18.256;2022-12-18T03:01:21;5.15;;;3.63;;
44558;SDS011;30270;40.238;18.256;2022-12-18T03:06:57;9.20;;;4.13;;
44558;SDS011;30270;40.238;18.256;2022-12-18T03:09:34;5.78;;;4.07;;
44558;SDS011;30270;40.238;18.256;2022-12-18T03:12:29;6.15;;;3.67;;
44558;SDS011;30270;40.238;18.256;2022-12-18T03:15:04;6.38;;;3.85;;
44558;SDS011;30270;40.238;18.256;2022-12-18T03:17:41;6.53;;;4.32;;
44558;SDS011;30270;40.238;18.256;2022-12-18T03:20:14;7.07;;;4.00;;
44558;SDS011;30270;40.238;18.256;2022-12-18T03:22:46;8.23;;;5.20;;
44558;SDS011;30270;40.238;18.256;2022-12-18T03:25:23;5.32;;;4.18;;
44558;SDS011;30270;40.238;18.256;2022-12-18T03:27:55;10.07;;;3.72;;
44558;SDS011;30270;40.238;18.256;2022-12-18T03:30:25;5.15;;;3.30;;
44558;SDS011;30270;40.238;18.256;2022-12-18T03:35:46;8.00;;;4.20;;
44558;SDS011;30270;40.238;18.256;2022-12-18T03:38:16;5.75;;;4.30;;
44558;SDS011;30270;40.238;18.256;2022-12-18T03:43:26;7.47;;;4.30;;
44558;SDS011;30270;40.238;18.256;2022-12-18T03:46:09;12.77;;;6.25;;
44558;SDS011;30270;40.238;18.256;2022-12-18T03:48:45;8.40;;;4.63;;
44558;SDS011;30270;40.238;18.256;2022-12-18T03:51:23;7.93;;;5.38;;
44558;SDS011;30270;40.238;18.256;2022-12-18T03:56:30;9.32;;;4.55;;
44558;SDS011;30270;40.238;18.256;2022-12-18T03:59:03;8.45;;;5.25;;
44558;SDS011;30270;40.238;18.256;2022-12-18T04:01:33;11.35;;;5.65;;
44558;SDS011;30270;40.238;18.256;2022-12-18T04:04:05;6.05;;;4.30;;
44558;SDS011;30270;40.238;18.256;2022-12-18T04:06:37;8.93;;;4.90;;
44558;SDS011;30270;40.238;18.256;2022-12-18T04:09:09;9.30;;;6.72;;
44558;SDS011;30270;40.238;18.256;2022-12-18T04:11:41;9.27;;;4.85;;
44558;SDS011;30270;40.238;18.256;2022-12-18T04:14:14;10.27;;;4.72;;
44558;SDS011;30270;40.238;18.256;2022-12-18T04:16:43;10.00;;;5.70;;
44558;SDS011;30270;40.238;18.256;2022-12-18T04:19:14;12.05;;;7.03;;
44558;SDS011;30270;40.238;18.256;2022-12-18T04:21:43;7.80;;;5.30;;
44558;SDS011;30270;40.238;18.256;2022-12-18T04:24:12;8.45;;;5.45;;
44558;SDS011;30270;40.238;18.256;2022-12-18T04:26:48;11.45;;;5.72;;
44558;SDS011;30270;40.238;18.256;2022-12-18T04:29:21;8.25;;;5.22;;
44558;SDS011;30270;40.238;18.256;2022-12-18T04:31:49;9.00;;;5.20;;
44558;SDS011;30270;40.238;18.256;2022-12-18T04:34:18;7.25;;;5.38;;
44558;SDS011;30270;40.238;18.256;2022-12-18T04:36:49;8.65;;;5.72;;
44558;SDS011;30270;40.238;18.256;2022-12-18T04:39:17;7.80;;;5.57;;
44558;SDS011;30270;40.238;18.256;2022-12-18T04:41:47;9.23;;;5.18;;
44558;SDS011;30270;40.238;18.256;2022-12-18T04:44:14;13.10;;;5.97;;
44558;SDS011;30270;40.238;18.256;2022-12-18T04:46:42;7.85;;;5.03;;
44558;SDS011;30270;40.238;18.256;2022-12-18T04:49:10;8.98;;;5.75;;
44558;SDS011;30270;40.238;18.256;2022-12-18T04:51:37;8.48;;;5.57;;
44558;SDS011;30270;40.238;18.256;2022-12-18T04:54:05;10.98;;;6.05;;
44558;SDS011;30270;40.238;18.256;2022-12-18T04:56:33;8.18;;;5.35;;
44558;SDS011;30270;40.238;18.256;2022-12-18T04:59:00;9.48;;;6.53;;
44558;SDS011;30270;40.238;18.256;2022-12-18T05:01:27;8.27;;;5.07;;
44558;SDS011;30270;40.238;18.256;2022-12-18T05:03:58;7.53;;;6.07;;
44558;SDS011;30270;40.238;18.256;2022-12-18T05:06:25;9.57;;;6.75;;
44558;SDS011;30270;40.238;18.256;2022-12-18T05:08:53;9.65;;;5.80;;
44558;SDS011;30270;40.238;18.256;2022-12-18T05:11:20;7.72;;;5.40;;
44558;SDS011;30270;40.238;18.256;2022-12-18T05:13:47;9.77;;;5.82;;
44558;SDS011;30270;40.238;18.256;2022-12-18T05:16:15;9.30;;;6.18;;
44558;SDS011;30270;40.238;18.256;2022-12-18T05:18:42;10.60;;;6.55;;
44558;SDS011;30270;40.238;18.256;2022-12-18T05:21:10;10.35;;;6.03;;
44558;SDS011;30270;40.238;18.256;2022-12-18T05:23:37;5.70;;;4.65;;
44558;SDS011;30270;40.238;18.256;2022-12-18T05:26:05;9.73;;;4.90;;
44558;SDS011;30270;40.238;18.256;2022-12-18T05:28:35;8.25;;;5.30;;
44558;SDS011;30270;40.238;18.256;2022-12-18T05:31:03;9.05;;;5.97;;
44558;SDS011;30270;40.238;18.256;2022-12-18T05:33:32;9.80;;;5.10;;
44558;SDS011;30270;40.238;18.256;2022-12-18T05:36:01;7.68;;;5.10;;
44558;SDS011;30270;40.238;18.256;2022-12-18T05:38:31;9.15;;;5.40;;
44558;SDS011;30270;40.238;18.256;2022-12-18T05:40:59;8.68;;;6.45;;
44558;SDS011;30270;40.238;18.256;2022-12-18T05:43:26;9.13;;;4.30;;
44558;SDS011;30270;40.238;18.256;2022-12-18T05:45:54;7.75;;;5.53;;
44558;SDS011;30270;40.238;18.256;2022-12-18T05:48:23;8.63;;;6.45;;
44558;SDS011;30270;40.238;18.256;2022-12-18T05:50:51;10.40;;;5.55;;
44558;SDS011;30270;40.238;18.256;2022-12-18T05:53:19;8.70;;;4.80;;
44558;SDS011;30270;40.238;18.256;2022-12-18T05:55:47;12.75;;;5.25;;
44558;SDS011;30270;40.238;18.256;2022-12-18T05:58:15;6.55;;;5.40;;
44558;SDS011;30270;40.238;18.256;2022-12-18T06:00:44;7.10;;;4.63;;
44558;SDS011;30270;40.238;18.256;2022-12-18T06:03:12;8.60;;;5.38;;
44558;SDS011;30270;40.238;18.256;2022-12-18T06:05:41;5.57;;;4.78;;
44558;SDS011;30270;40.238;18.256;2022-12-18T06:08:10;5.82;;;4.38;;
44558;SDS011;30270;40.238;18.256;2022-12-18T06:10:39;8.85;;;4.43;;
44558;SDS011;30270;40.238;18.256;2022-12-18T06:13:07;6.13;;;4.30;;
44558;SDS011;30270;40.238;18.256;2022-12-18T06:15:38;7.43;;;4.65;;
44558;SDS011;30270;40.238;18.256;2022-12-18T06:18:06;6.50;;;3.50;;
44558;SDS011;30270;40.238;18.256;2022-12-18T06:20:33;8.18;;;4.07;;
44558;SDS011;30270;40.238;18.256;2022-12-18T06:23:03;6.07;;;4.15;;
44558;SDS011;30270;40.238;18.256;2022-12-18T06:25:30;8.43;;;4.00;;
44558;SDS011;30270;40.238;18.256;2022-12-18T06:27:58;11.65;;;5.00;;
44558;SDS011;30270;40.238;18.256;2022-12-18T06:30:26;8.70;;;4.25;;
44558;SDS011;30270;40.238;18.256;2022-12-18T06:32:54;8.73;;;3.78;;
44558;SDS011;30270;40.238;18.256;2022-12-18T06:35:22;6.97;;;4.05;;
44558;SDS011;30270;40.238;18.256;2022-12-18T06:37:49;5.60;;;2.85;;
44558;SDS011;30270;40.238;18.256;2022-12-18T06:40:17;6.97;;;3.42;;
44558;SDS011;30270;40.238;18.256;2022-12-18T06:42:45;9.65;;;3.70;;
44558;SDS011;30270;40.238;18.256;2022-12-18T06:45:12;5.35;;;2.80;;
44558;SDS011;30270;40.238;18.256;2022-12-18T06:47:40;4.78;;;3.20;;
44558;SDS011;30270;40.238;18.256;2022-12-18T06:50:07;5.78;;;4.35;;
44558;SDS011;30270;40.238;18.256;2022-12-18T06:52:35;11.90;;;4.20;;
44558;SDS011;30270;40.238;18.256;2022-12-18T06:55:03;8.02;;;4.15;;
44558;SDS011;30270;40.238;18.256;2022-12-18T06:57:31;6.80;;;4.63;;
44558;SDS011;30270;40.238;18.256;2022-12-18T06:59:59;16.33;;;7.32;;
44558;SDS011;30270;40.238;18.256;2022-12-18T07:02:26;6.55;;;5.45;;
44558;SDS011;30270;40.238;18.256;2022-12-18T07:04:54;8.55;;;5.50;;
44558;SDS011;30270;40.238;18.256;2022-12-18T07:07:21;11.05;;;6.10;;
44558;SDS011;30270;40.238;18.256;2022-12-18T07:09:49;7.15;;;4.35;;
44558;SDS011;30270;40.238;18.256;2022-12-18T07:12:17;7.88;;;5.53;;
44558;SDS011;30270;40.238;18.256;2022-12-18T07:14:45;7.35;;;4.88;;
44558;SDS011;30270;40.238;18.256;2022-12-18T07:17:13;8.05;;;5.50;;
44558;SDS011;30270;40.238;18.256;2022-12-18T07:19:40;9.63;;;5.38;;
44558;SDS011;30270;40.238;18.256;2022-12-18T07:22:08;13.75;;;6.30;;
44558;SDS011;30270;40.238;18.256;2022-12-18T07:24:35;8.23;;;6.10;;
44558;SDS011;30270;40.238;18.256;2022-12-18T07:27:03;12.25;;;4.68;;
44558;SDS011;30270;40.238;18.256;2022-12-18T07:29:31;12.27;;;5.45;;
44558;SDS011;30270;40.238;18.256;2022-12-18T07:31:58;12.25;;;5.43;;
44558;SDS011;30270;40.238;18.256;2022-12-18T07:34:25;9.38;;;4.93;;
44558;SDS011;30270;40.238;18.256;2022-12-18T07:36:53;6.65;;;4.80;;
44558;SDS011;30270;40.238;18.256;2022-12-18T07:39:21;12.73;;;4.72;;
44558;SDS011;30270;40.238;18.256;2022-12-18T07:41:48;5.90;;;4.97;;
44558;SDS011;30270;40.238;18.256;2022-12-18T07:44:39;8.88;;;4.45;;
44558;SDS011;30270;40.238;18.256;2022-12-18T07:47:06;13.27;;;6.10;;
44558;SDS011;30270;40.238;18.256;2022-12-18T07:49:37;7.70;;;4.45;;
44558;SDS011;30270;40.238;18.256;2022-12-18T07:52:04;14.57;;;4.97;;
44558;SDS011;30270;40.238;18.256;2022-12-18T07:54:32;8.07;;;4.75;;
44558;SDS011;30270;40.238;18.256;2022-12-18T07:57:00;8.20;;;5.43;;
44558;SDS011;30270;40.238;18.256;2022-12-18T07:59:27;7.40;;;5.15;;
44558;SDS011;30270;40.238;18.256;2022-12-18T08:01:55;9.57;;;5.10;;
44558;SDS011;30270;40.238;18.256;2022-12-18T08:04:23;10.30;;;6.10;;
44558;SDS011;30270;40.238;18.256;2022-12-18T08:06:51;7.93;;;4.70;;
44558;SDS011;30270;40.238;18.256;2022-12-18T08:09:18;11.80;;;4.80;;
44558;SDS011;30270;40.238;18.256;2022-12-18T08:11:46;9.25;;;5.38;;
44558;SDS011;30270;40.238;18.256;2022-12-18T08:14:13;8.10;;;4.85;;
44558;SDS011;30270;40.238;18.256;2022-12-18T08:16:41;14.43;;;5.82;;
44558;SDS011;30270;40.238;18.256;2022-12-18T08:19:08;8.02;;;4.45;;
44558;SDS011;30270;40.238;18.256;2022-12-18T08:21:37;11.75;;;5.53;;
44558;SDS011;30270;40.238;18.256;2022-12-18T08:24:09;9.38;;;5.10;;
44558;SDS011;30270;40.238;18.256;2022-12-18T08:26:37;9.13;;;4.45;;
44558;SDS011;30270;40.238;18.256;2022-12-18T08:29:05;8.95;;;3.80;;
44558;SDS011;30270;40.238;18.256;2022-12-18T08:31:33;8.60;;;3.95;;
44558;SDS011;30270;40.238;18.256;2022-12-18T08:34:00;7.22;;;3.85;;
44558;SDS011;30270;40.238;18.256;2022-12-18T08:36:28;10.02;;;3.45;;
44558;SDS011;30270;40.238;18.256;2022-12-18T08:38:56;8.70;;;4.53;;
44558;SDS011;30270;40.238;18.256;2022-12-18T08:41:23;7.47;;;4.07;;
44558;SDS011;30270;40.238;18.256;2022-12-18T08:43:51;8.73;;;4.60;;
44558;SDS011;30270;40.238;18.256;2022-12-18T08:46:38;5.93;;;3.45;;
44558;SDS011;30270;40.238;18.256;2022-12-18T08:49:07;5.63;;;3.47;;
44558;SDS011;30270;40.238;18.256;2022-12-18T08:51:36;7.68;;;3.95;;
44558;SDS011;30270;40.238;18.256;2022-12-18T08:54:04;8.38;;;4.20;;
44558;SDS011;30270;40.238;18.256;2022-12-18T08:56:33;6.78;;;4.18;;
44558;SDS011;30270;40.238;18.256;2022-12-18T08:59:01;8.70;;;4.20;;
44558;SDS011;30270;40.238;18.256;2022-12-18T09:01:29;9.90;;;4.15;;
44558;SDS011;30270;40.238;18.256;2022-12-18T09:03:57;5.78;;;3.20;;
44558;SDS011;30270;40.238;18.256;2022-12-18T09:06:25;7.88;;;3.72;;
44558;SDS011;30270;40.238;18.256;2022-12-18T09:08:53;6.53;;;3.28;;
44558;SDS011;30270;40.238;18.256;2022-12-18T09:11:22;6.20;;;2.85;;
44558;SDS011;30270;40.238;18.256;2022-12-18T09:13:52;8.15;;;3.60;;
44558;SDS011;30270;40.238;18.256;2022-12-18T09:16:21;10.23;;;4.15;;
44558;SDS011;30270;40.238;18.256;2022-12-18T09:18:52;4.32;;;2.65;;
44558;SDS011;30270;40.238;18.256;2022-12-18T09:21:27;4.47;;;2.17;;
44558;SDS011;30270;40.238;18.256;2022-12-18T09:23:56;8.10;;;3.10;;
44558;SDS011;30270;40.238;18.256;2022-12-18T09:26:25;7.63;;;2.60;;
44558;SDS011;30270;40.238;18.256;2022-12-18T09:28:53;8.95;;;3.35;;
44558;SDS011;30270;40.238;18.256;2022-12-18T09:31:21;10.07;;;3.25;;
44558;SDS011;30270;40.238;18.256;2022-12-18T09:33:50;4.18;;;2.20;;
44558;SDS011;30270;40.238;18.256;2022-12-18T09:36:18;6.72;;;4.25;;
44558;SDS011;30270;40.238;18.256;2022-12-18T09:38:46;6.43;;;2.75;;
44558;SDS011;30270;40.238;18.256;2022-12-18T09:49:22;6.65;;;3.33;;
44558;SDS011;30270;40.238;18.256;2022-12-18T09:51:54;6.35;;;2.15;;
44558;SDS011;30270;40.238;18.256;2022-12-18T09:54:40;4.05;;;1.85;;
44558;SDS011;30270;40.238;18.256;2022-12-18T09:57:14;5.35;;;2.42;;
44558;SDS011;30270;40.238;18.256;2022-12-18T09:59:46;5.40;;;2.60;;
44558;SDS011;30270;40.238;18.256;2022-12-18T10:02:19;7.35;;;1.92;;
44558;SDS011;30270;40.238;18.256;2022-12-18T10:05:00;6.85;;;2.00;;
44558;SDS011;30270;40.238;18.256;2022-12-18T10:07:38;5.38;;;1.92;;
44558;SDS011;30270;40.238;18.256;2022-12-18T10:13:08;8.98;;;3.35;;
44558;SDS011;30270;40.238;18.256;2022-12-18T10:15:40;8.52;;;2.67;;
44558;SDS011;30270;40.238;18.256;2022-12-18T10:18:36;5.45;;;2.63;;
44558;SDS011;30270;40.238;18.256;2022-12-18T10:21:30;6.43;;;2.33;;
44558;SDS011;30270;40.238;18.256;2022-12-18T10:27:14;5.00;;;1.75;;
44558;SDS011;30270;40.238;18.256;2022-12-18T10:29:45;5.30;;;2.03;;
44558;SDS011;30270;40.238;18.256;2022-12-18T10:32:29;3.28;;;1.80;;
44558;SDS011;30270;40.238;18.256;2022-12-18T10:34:57;3.65;;;2.00;;
44558;SDS011;30270;40.238;18.256;2022-12-18T10:37:27;2.83;;;1.75;;
44558;SDS011;30270;40.238;18.256;2022-12-18T10:42:49;4.53;;;2.05;;
44558;SDS011;30270;40.238;18.256;2022-12-18T10:45:31;4.68;;;2.28;;
44558;SDS011;30270;40.238;18.256;2022-12-18T10:47:59;4.72;;;2.15;;
44558;SDS011;30270;40.238;18.256;2022-12-18T10:50:31;4.47;;;1.50;;
44558;SDS011;30270;40.238;18.256;2022-12-18T10:53:22;4.07;;;2.40;;
44558;SDS011;30270;40.238;18.256;2022-12-18T10:55:53;4.05;;;1.75;;
44558;SDS011;30270;40.238;18.256;2022-12-18T10:58:27;3.97;;;1.70;;
44558;SDS011;30270;40.238;18.256;2022-12-18T11:03:38;8.48;;;2.00;;
44558;SDS011;30270;40.238;18.256;2022-12-18T11:08:57;3.53;;;2.17;;
44558;SDS011;30270;40.238;18.256;2022-12-18T11:11:31;5.28;;;2.40;;
44558;SDS011;30270;40.238;18.256;2022-12-18T11:14:06;7.00;;;2.13;;
44558;SDS011;30270;40.238;18.256;2022-12-18T11:16:46;5.95;;;3.08;;
44558;SDS011;30270;40.238;18.256;2022-12-18T11:19:35;5.45;;;2.45;;
44558;SDS011;30270;40.238;18.256;2022-12-18T11:27:51;4.10;;;1.85;;
44558;SDS011;30270;40.238;18.256;2022-12-18T11:32:53;4.35;;;2.50;;
44558;SDS011;30270;40.238;18.256;2022-12-18T11:35:32;7.43;;;2.78;;
44558;SDS011;30270;40.238;18.256;2022-12-18T11:38:23;5.88;;;2.03;;
44558;SDS011;30270;40.238;18.256;2022-12-18T11:43:29;9.13;;;2.15;;
44558;SDS011;30270;40.238;18.256;2022-12-18T11:46:13;3.70;;;1.70;;
44558;SDS011;30270;40.238;18.256;2022-12-18T11:51:53;6.97;;;2.78;;
44558;SDS011;30270;40.238;18.256;2022-12-18T11:54:27;9.05;;;2.63;;
44558;SDS011;30270;40.238;18.256;2022-12-18T11:56:56;5.43;;;1.80;;
44558;SDS011;30270;40.238;18.256;2022-12-18T11:59:46;3.03;;;1.63;;
44558;SDS011;30270;40.238;18.256;2022-12-18T12:05:18;3.03;;;1.75;;
44558;SDS011;30270;40.238;18.256;2022-12-18T12:10:39;3.85;;;3.08;;
44558;SDS011;30270;40.238;18.256;2022-12-18T12:18:32;2.25;;;1.50;;
44558;SDS011;30270;40.238;18.256;2022-12-18T12:21:14;2.70;;;1.67;;
44558;SDS011;30270;40.238;18.256;2022-12-18T12:24:03;5.07;;;2.17;;
44558;SDS011;30270;40.238;18.256;2022-12-18T12:38:21;5.40;;;2.50;;
44558;SDS011;30270;40.238;18.256;2022-12-18T12:40:54;8.30;;;2.72;;
44558;SDS011;30270;40.238;18.256;2022-12-18T12:43:35;4.18;;;1.80;;
44558;SDS011;30270;40.238;18.256;2022-12-18T12:46:17;3.80;;;1.70;;
44558;SDS011;30270;40.238;18.256;2022-12-18T12:51:18;5.63;;;2.15;;
44558;SDS011;30270;40.238;18.256;2022-12-18T12:53:56;3.50;;;2.00;;
44558;SDS011;30270;40.238;18.256;2022-12-18T12:56:36;5.13;;;2.55;;
44558;SDS011;30270;40.238;18.256;2022-12-18T12:59:26;2.83;;;1.48;;
44558;SDS011;30270;40.238;18.256;2022-12-18T13:05:13;3.63;;;2.03;;
44558;SDS011;30270;40.238;18.256;2022-12-18T13:07:54;3.88;;;2.05;;
44558;SDS011;30270;40.238;18.256;2022-12-18T13:10:24;3.95;;;2.13;;
44558;SDS011;30270;40.238;18.256;2022-12-18T13:15:43;4.85;;;2.25;;
44558;SDS011;30270;40.238;18.256;2022-12-18T13:23:33;5.07;;;2.20;;
44558;SDS011;30270;40.238;18.256;2022-12-18T13:36:52;3.65;;;2.28;;
44558;SDS011;30270;40.238;18.256;2022-12-18T13:45:31;5.90;;;3.33;;
44558;SDS011;30270;40.238;18.256;2022-12-18T13:48:18;3.90;;;2.38;;
44558;SDS011;30270;40.238;18.256;2022-12-18T13:50:52;4.65;;;2.17;;
44558;SDS011;30270;40.238;18.256;2022-12-18T13:53:45;8.88;;;2.65;;
44558;SDS011;30270;40.238;18.256;2022-12-18T13:56:15;5.63;;;3.17;;
44558;SDS011;30270;40.238;18.256;2022-12-18T13:58:44;5.43;;;3.05;;
44558;SDS011;30270;40.238;18.256;2022-12-18T14:01:23;6.47;;;4.18;;
44558;SDS011;30270;40.238;18.256;2022-12-18T14:03:59;8.27;;;3.00;;
44558;SDS011;30270;40.238;18.256;2022-12-18T14:06:37;5.70;;;2.90;;
44558;SDS011;30270;40.238;18.256;2022-12-18T14:09:05;5.93;;;2.20;;
44558;SDS011;30270;40.238;18.256;2022-12-18T14:11:33;5.10;;;2.60;;
44558;SDS011;30270;40.238;18.256;2022-12-18T14:14:01;14.45;;;5.63;;
44558;SDS011;30270;40.238;18.256;2022-12-18T14:16:31;8.75;;;3.42;;
44558;SDS011;30270;40.238;18.256;2022-12-18T14:18:59;5.65;;;3.50;;
44558;SDS011;30270;40.238;18.256;2022-12-18T14:21:27;8.05;;;3.25;;
44558;SDS011;30270;40.238;18.256;2022-12-18T14:24:30;6.05;;;2.80;;
44558;SDS011;30270;40.238;18.256;2022-12-18T14:26:50;5.53;;;2.50;;
44558;SDS011;30270;40.238;18.256;2022-12-18T14:29:25;5.47;;;2.83;;
44558;SDS011;30270;40.238;18.256;2022-12-18T14:32:11;5.55;;;3.22;;
44558;SDS011;30270;40.238;18.256;2022-12-18T14:34:48;9.20;;;3.65;;
44558;SDS011;30270;40.238;18.256;2022-12-18T14:37:19;6.38;;;3.45;;
44558;SDS011;30270;40.238;18.256;2022-12-18T14:39:59;6.38;;;3.78;;
44558;SDS011;30270;40.238;18.256;2022-12-18T14:42:34;6.00;;;3.30;;
44558;SDS011;30270;40.238;18.256;2022-12-18T14:48:07;8.48;;;4.13;;
44558;SDS011;30270;40.238;18.256;2022-12-18T14:50:38;7.03;;;4.57;;
44558;SDS011;30270;40.238;18.256;2022-12-18T14:53:15;11.88;;;7.40;;
44558;SDS011;30270;40.238;18.256;2022-12-18T14:56:04;10.38;;;4.15;;
44558;SDS011;30270;40.238;18.256;2022-12-18T14:58:45;21.45;;;6.43;;
44558;SDS011;30270;40.238;18.256;2022-12-18T15:03:55;6.18;;;3.90;;
44558;SDS011;30270;40.238;18.256;2022-12-18T15:06:31;9.32;;;4.60;;
44558;SDS011;30270;40.238;18.256;2022-12-18T15:09:05;8.50;;;4.38;;
44558;SDS011;30270;40.238;18.256;2022-12-18T15:11:56;6.60;;;4.07;;
44558;SDS011;30270;40.238;18.256;2022-12-18T15:16:58;6.78;;;3.95;;
44558;SDS011;30270;40.238;18.256;2022-12-18T15:20:02;7.30;;;3.78;;
44558;SDS011;30270;40.238;18.256;2022-12-18T15:22:30;5.43;;;3.22;;
44558;SDS011;30270;40.238;18.256;2022-12-18T15:25:03;8.05;;;3.42;;
44558;SDS011;30270;40.238;18.256;2022-12-18T15:27:49;7.53;;;3.53;;
44558;SDS011;30270;40.238;18.256;2022-12-18T15:32:46;4.20;;;2.80;;
44558;SDS011;30270;40.238;18.256;2022-12-18T15:35:15;8.10;;;3.20;;
44558;SDS011;30270;40.238;18.256;2022-12-18T15:37:46;7.47;;;2.92;;
44558;SDS011;30270;40.238;18.256;2022-12-18T15:40:18;5.70;;;4.07;;
44558;SDS011;30270;40.238;18.256;2022-12-18T15:42:48;5.18;;;3.30;;
44558;SDS011;30270;40.238;18.256;2022-12-18T15:45:36;5.70;;;2.97;;
44558;SDS011;30270;40.238;18.256;2022-12-18T15:48:22;7.97;;;2.90;;
44558;SDS011;30270;40.238;18.256;2022-12-18T15:53:19;10.63;;;3.55;;
44558;SDS011;30270;40.238;18.256;2022-12-18T15:55:47;4.65;;;3.00;;
44558;SDS011;30270;40.238;18.256;2022-12-18T15:58:33;8.15;;;4.22;;
44558;SDS011;30270;40.238;18.256;2022-12-18T16:01:02;6.30;;;3.00;;
44558;SDS011;30270;40.238;18.256;2022-12-18T16:03:29;7.97;;;3.97;;
44558;SDS011;30270;40.238;18.256;2022-12-18T16:05:57;9.25;;;5.13;;
44558;SDS011;30270;40.238;18.256;2022-12-18T16:08:28;8.98;;;5.13;;
44558;SDS011;30270;40.238;18.256;2022-12-18T16:10:56;10.35;;;4.65;;
44558;SDS011;30270;40.238;18.256;2022-12-18T16:13:25;7.65;;;3.85;;
44558;SDS011;30270;40.238;18.256;2022-12-18T16:15:53;6.47;;;3.55;;
44558;SDS011;30270;40.238;18.256;2022-12-18T16:18:21;6.75;;;3.78;;
44558;SDS011;30270;40.238;18.256;2022-12-18T16:20:48;8.27;;;3.40;;
44558;SDS011;30270;40.238;18.256;2022-12-18T16:23:16;7.22;;;4.65;;
44558;SDS011;30270;40.238;18.256;2022-12-18T16:25:44;11.27;;;5.80;;
44558;SDS011;30270;40.238;18.256;2022-12-18T16:28:12;11.02;;;4.63;;
44558;SDS011;30270;40.238;18.256;2022-12-18T16:30:39;7.22;;;4.65;;
44558;SDS011;30270;40.238;18.256;2022-12-18T16:33:07;8.43;;;4.97;;
44558;SDS011;30270;40.238;18.256;2022-12-18T16:35:36;6.88;;;5.07;;
44558;SDS011;30270;40.238;18.256;2022-12-18T16:38:04;12.18;;;6.55;;
44558;SDS011;30270;40.238;18.256;2022-12-18T16:40:32;11.75;;;5.82;;
44558;SDS011;30270;40.238;18.256;2022-12-18T16:43:00;8.38;;;4.75;;
44558;SDS011;30270;40.238;18.256;2022-12-18T16:45:27;7.53;;;4.28;;
44558;SDS011;30270;40.238;18.256;2022-12-18T16:47:59;7.72;;;4.13;;
44558;SDS011;30270;40.238;18.256;2022-12-18T16:50:27;8.82;;;4.70;;
44558;SDS011;30270;40.238;18.256;2022-12-18T16:52:54;7.22;;;4.40;;
44558;SDS011;30270;40.238;18.256;2022-12-18T16:55:22;8.65;;;5.18;;
44558;SDS011;30270;40.238;18.256;2022-12-18T16:57:50;7.95;;;4.93;;
44558;SDS011;30270;40.238;18.256;2022-12-18T17:00:17;17.48;;;6.45;;
44558;SDS011;30270;40.238;18.256;2022-12-18T17:02:45;8.05;;;4.75;;
44558;SDS011;30270;40.238;18.256;2022-12-18T17:05:14;11.77;;;5.20;;
44558;SDS011;30270;40.238;18.256;2022-12-18T17:07:41;9.80;;;6.57;;
44558;SDS011;30270;40.238;18.256;2022-12-18T17:10:09;11.27;;;8.65;;
44558;SDS011;30270;40.238;18.256;2022-12-18T17:12:37;29.60;;;20.42;;
44558;SDS011;30270;40.238;18.256;2022-12-18T17:15:04;72.50;;;48.78;;
44558;SDS011;30270;40.238;18.256;2022-12-18T17:17:33;64.05;;;43.58;;